YBCS

Cairns International Airport

Cairns, Australia
TAF AMD YBCS 202034Z 2021/2118 16010KT 9999 -SHRA FEW025 BKN045 FM210100 12014KT 9999 FEW030 SCT045 FM211000 16010KT 9999 -SHRA FEW025 BKN035 INTER 2023/2112 5000 SHRA BKN018
Issued Valid From Valid To
Jan-20 @ 20:34 UTC
(46 minutes ago)
Jan-20 @ 21:00 UTC
(20 minutes ago)
Jan-21 @ 18:00 UTC
(in 21 hours)
Jan-20 @ 21:00 to Jan-21 @ 01:00
TAF AMD YBCS 202034Z 2021/2118 16010KT 9999 -SHRA FEW025 BKN045
Wind Visibility Clouds Conditions
160° at 10 knots 10,000+ meters
  • Few at 2,500' AGL
  • Broken at 4,500' AGL
  • Light Rain
Temporary Jan-20 @ 23:00 to Jan-21 @ 12:00
INTER 2023/2112 5000 SHRA BKN018
Visibility Clouds Conditions
5,005 meters
  • Broken at 1,800' AGL
  • Rain
From Jan-21 @ 01:00 to Jan-21 @ 10:00
FM210100 12014KT 9999 FEW030 SCT045
Wind Visibility Clouds
120° at 14 knots 10,000+ meters
  • Few at 3,000' AGL
  • Scattered at 4,500' AGL
From Jan-21 @ 10:00 to Jan-21 @ 18:00
FM211000 16010KT 9999 -SHRA FEW025 BKN035
Wind Visibility Clouds Conditions
160° at 10 knots 10,000+ meters
  • Few at 2,500' AGL
  • Broken at 3,500' AGL
  • Light Rain
TAF AMD YBCS 202034Z 2021/2118 16010KT 9999 -SHRA FEW025 BKN045 FM210100 12014KT 9999 FEW030 SCT045 FM211000 16010KT 9999 -SHRA FEW025 BKN035 INTER 2023/2112 5000 SHRA BKN018
Issued Jan-20 @ 20:34 UTC
(46 minutes ago)
Valid From Jan-20 @ 21:00 UTC
(20 minutes ago)
Valid To Jan-21 @ 18:00 UTC
(in 21 hours)
Jan-20 @ 21:00 - Jan-21 @ 01:00
Wind Visibility
160° at 10 knots 10,000+ meters
Clouds
  • Few at 2,500' AGL
  • Broken at 4,500' AGL
Conditions
  • Light Rain
Temporary Jan-20 @ 23:00 - Jan-21 @ 12:00
Clouds
  • Broken at 1,800' AGL
Conditions
  • Rain
From Jan-21 @ 01:00 - Jan-21 @ 10:00
Wind Visibility
120° at 14 knots 10,000+ meters
Clouds
  • Few at 3,000' AGL
  • Scattered at 4,500' AGL
From Jan-21 @ 10:00 - Jan-21 @ 18:00
Wind Visibility
160° at 10 knots 10,000+ meters
Clouds
  • Few at 2,500' AGL
  • Broken at 3,500' AGL
Conditions
  • Light Rain